createdAt,value
2016-05-10T00:00:23.580Z,0
2016-05-10T00:01:23.613Z,0
2016-05-10T00:02:23.491Z,0
2016-05-10T00:03:23.572Z,0
2016-05-10T00:04:23.747Z,0
2016-05-10T00:05:23.765Z,0
2016-05-10T00:06:23.799Z,0
2016-05-10T00:07:23.693Z,0
2016-05-10T00:08:23.898Z,0
2016-05-10T00:09:23.932Z,0
2016-05-10T00:10:23.951Z,0
2016-05-10T00:11:24.016Z,0
2016-05-10T00:12:24.061Z,0
2016-05-10T00:13:23.980Z,0
2016-05-10T00:14:24.211Z,0
2016-05-10T00:15:24.146Z,0
2016-05-10T00:16:24.221Z,0
2016-05-10T00:17:24.294Z,0
2016-05-10T00:18:24.342Z,0
2016-05-10T00:19:24.562Z,0
2016-05-10T00:20:24.455Z,0
2016-05-10T00:21:24.504Z,0
2016-05-10T00:22:24.577Z,0
2016-05-10T00:23:24.741Z,0
2016-05-10T00:24:24.625Z,0
2016-05-10T00:25:24.836Z,0
2016-05-10T00:26:24.719Z,0
2016-05-10T00:27:24.912Z,0
2016-05-10T00:28:24.980Z,0
2016-05-10T00:29:24.860Z,0
2016-05-10T00:30:25.082Z,0
2016-05-10T00:31:24.994Z,0
2016-05-10T00:32:24.965Z,0
2016-05-10T00:33:24.672Z,0
2016-05-10T00:34:25.191Z,0
2016-05-10T00:35:25.070Z,0
2016-05-10T00:36:25.276Z,0
2016-05-10T00:37:25.154Z,0
2016-05-10T00:38:25.189Z,0
2016-05-10T00:39:25.395Z,0
2016-05-10T00:40:25.429Z,0
2016-05-10T00:41:25.463Z,0
2016-05-10T00:42:25.513Z,0
2016-05-10T00:43:25.391Z,0
2016-05-10T00:44:25.877Z,0
2016-05-10T00:45:25.631Z,0
2016-05-10T00:46:25.508Z,0
2016-05-10T00:47:25.543Z,0
2016-05-10T00:48:25.733Z,0
2016-05-10T00:49:25.610Z,0
2016-05-10T00:50:25.660Z,0
2016-05-10T00:51:25.834Z,0
2016-05-10T00:52:25.884Z,0
2016-05-10T00:53:25.934Z,0
2016-05-10T00:54:25.968Z,0
2016-05-10T00:55:25.986Z,0
2016-05-10T00:56:26.082Z,0
2016-05-10T00:57:26.101Z,0
2016-05-10T00:58:25.947Z,0
2016-05-10T00:59:26.200Z,0
2016-05-10T01:00:26.203Z,0
2016-05-10T01:01:26.236Z,0
2016-05-10T01:02:26.098Z,0
2016-05-10T01:03:26.320Z,0
2016-05-10T01:04:26.339Z,0
2016-05-10T01:05:26.372Z,0
2016-05-10T01:06:26.406Z,0
2016-05-10T01:07:26.300Z,0
2016-05-10T01:08:26.505Z,0
2016-05-10T01:09:26.367Z,0
2016-05-10T01:10:26.417Z,0
2016-05-10T01:11:26.607Z,0
2016-05-10T01:12:26.641Z,0
2016-05-10T01:13:26.691Z,0
2016-05-10T01:14:27.303Z,0
2016-05-10T01:15:26.758Z,0
2016-05-10T01:16:26.792Z,0
2016-05-10T01:17:26.827Z,0
2016-05-10T01:18:26.876Z,0
2016-05-10T01:19:26.754Z,0
2016-05-10T01:20:26.944Z,0
2016-05-10T01:21:26.977Z,0
2016-05-10T01:22:27.012Z,0
2016-05-10T01:23:27.061Z,0
2016-05-10T01:24:26.939Z,0
2016-05-10T01:25:27.129Z,0
2016-05-10T01:26:27.163Z,0
2016-05-10T01:27:27.196Z,0
2016-05-10T01:28:27.262Z,0
2016-05-10T01:29:26.984Z,0
2016-05-10T01:30:27.345Z,0
2016-05-10T01:31:27.364Z,0
2016-05-10T01:32:27.382Z,0
2016-05-10T01:33:27.448Z,0
2016-05-10T01:34:27.325Z,0
2016-05-10T01:35:27.515Z,0
2016-05-10T01:36:27.550Z,0
2016-05-10T01:37:27.427Z,0
2016-05-10T01:38:27.476Z,0
2016-05-10T01:39:27.511Z,0
2016-05-10T01:40:27.686Z,0
2016-05-10T01:41:27.734Z,0
2016-05-10T01:42:27.784Z,0
2016-05-10T01:43:27.661Z,0
2016-05-10T01:44:27.852Z,0
2016-05-10T01:45:27.886Z,0
2016-05-10T01:46:27.920Z,0
2016-05-10T01:47:27.814Z,0
2016-05-10T01:48:27.988Z,0
2016-05-10T01:49:28.052Z,0
2016-05-10T01:50:27.915Z,0
2016-05-10T01:51:27.965Z,0
2016-05-10T01:52:28.171Z,0
2016-05-10T01:53:28.189Z,0
2016-05-10T01:54:28.238Z,0
2016-05-10T01:55:28.288Z,0
2016-05-10T01:56:28.306Z,0
2016-05-10T01:57:28.044Z,0
2016-05-10T01:58:28.390Z,0
2016-05-10T01:59:28.799Z,0
2016-05-10T02:00:28.457Z,0
2016-05-10T02:01:28.351Z,0
2016-05-10T02:02:28.525Z,0
2016-05-10T02:03:28.622Z,0
2016-05-10T02:04:28.609Z,0
2016-05-10T02:05:28.643Z,0
2016-05-10T02:06:28.709Z,0
2016-05-10T02:07:28.711Z,0
2016-05-10T02:08:28.744Z,0
2016-05-10T02:09:28.638Z,0
2016-05-10T02:10:28.828Z,0
2016-05-10T02:11:28.878Z,0
2016-05-10T02:12:28.897Z,0
2016-05-10T02:13:28.945Z,0
2016-05-10T02:14:28.683Z,0
2016-05-10T02:15:28.857Z,0
2016-05-10T02:16:28.907Z,0
2016-05-10T02:17:29.081Z,0
2016-05-10T02:18:28.975Z,0
2016-05-10T02:19:29.165Z,0
2016-05-10T02:20:29.043Z,0
2016-05-10T02:21:29.233Z,0
2016-05-10T02:22:29.141Z,0
2016-05-10T02:23:29.863Z,0
2016-05-10T02:24:29.038Z,0
2016-05-10T02:25:29.244Z,0
2016-05-10T02:26:29.418Z,0
2016-05-10T02:27:29.452Z,0
2016-05-10T02:28:29.518Z,0
2016-05-10T02:29:29.660Z,0
2016-05-10T02:30:29.570Z,0
2016-05-10T02:31:29.447Z,0
2016-05-10T02:32:29.653Z,0
2016-05-10T02:33:29.687Z,0
2016-05-10T02:34:29.737Z,0
2016-05-10T02:35:29.771Z,0
2016-05-10T02:36:29.789Z,0
2016-05-10T02:37:29.838Z,0
2016-05-10T02:38:29.872Z,0
2016-05-10T02:39:29.765Z,0
2016-05-10T02:40:29.956Z,0
2016-05-10T02:41:29.834Z,0
2016-05-10T02:42:30.023Z,0
2016-05-10T02:43:30.058Z,0
2016-05-10T02:44:30.278Z,0
2016-05-10T02:45:30.126Z,0
2016-05-10T02:46:30.159Z,0
2016-05-10T02:47:30.208Z,0
2016-05-10T02:48:30.244Z,0
2016-05-10T02:49:30.136Z,0
2016-05-10T02:50:30.154Z,0
2016-05-10T02:51:30.361Z,0
2016-05-10T02:52:30.238Z,0
2016-05-10T02:53:30.272Z,0
2016-05-10T02:54:30.463Z,0
2016-05-10T02:55:30.512Z,0
2016-05-10T02:56:30.530Z,0
2016-05-10T02:57:30.579Z,0
2016-05-10T02:58:30.613Z,0
2016-05-10T02:59:30.694Z,0
2016-05-10T03:00:30.525Z,0
2016-05-10T03:01:30.732Z,0
2016-05-10T03:02:30.765Z,0
2016-05-10T03:03:30.799Z,4
2016-05-10T03:04:30.848Z,4
2016-05-10T03:05:30.882Z,0
2016-05-10T03:06:30.917Z,0
2016-05-10T03:07:30.637Z,0
2016-05-10T03:08:30.984Z,4
2016-05-10T03:09:31.018Z,4
2016-05-10T03:10:31.052Z,0
2016-05-10T03:11:31.086Z,4
2016-05-10T03:12:31.151Z,0
2016-05-10T03:13:31.170Z,4
2016-05-10T03:14:31.109Z,4
2016-05-10T03:15:31.253Z,8
2016-05-10T03:16:31.271Z,4
2016-05-10T03:17:31.322Z,4
2016-05-10T03:18:31.074Z,8
2016-05-10T03:19:31.388Z,12
2016-05-10T03:20:31.423Z,12
2016-05-10T03:21:31.472Z,12
2016-05-10T03:22:31.349Z,16
2016-05-10T03:23:31.540Z,16
2016-05-10T03:24:31.418Z,20
2016-05-10T03:25:31.608Z,24
2016-05-10T03:26:31.674Z,24
2016-05-10T03:27:31.379Z,28
2016-05-10T03:28:31.726Z,32
2016-05-10T03:29:31.994Z,32
2016-05-10T03:30:31.652Z,40
2016-05-10T03:31:31.859Z,48
2016-05-10T03:32:31.877Z,52
2016-05-10T03:33:31.754Z,60
2016-05-10T03:34:31.976Z,64
2016-05-10T03:35:31.995Z,76
2016-05-10T03:36:31.872Z,84
2016-05-10T03:37:31.907Z,92
2016-05-10T03:38:32.095Z,104
2016-05-10T03:39:32.130Z,116
2016-05-10T03:40:32.164Z,128
2016-05-10T03:41:32.214Z,144
2016-05-10T03:42:32.248Z,148
2016-05-10T03:43:32.281Z,160
2016-05-10T03:44:32.534Z,168
2016-05-10T03:45:32.209Z,180
2016-05-10T03:46:32.242Z,204
2016-05-10T03:47:32.277Z,236
2016-05-10T03:48:32.467Z,264
2016-05-10T03:49:32.501Z,296
2016-05-10T03:50:32.410Z,316
2016-05-10T03:51:32.427Z,336
2016-05-10T03:52:32.461Z,360
2016-05-10T03:53:32.511Z,392
2016-05-10T03:54:32.546Z,428
2016-05-10T03:55:32.580Z,468
2016-05-10T03:56:32.786Z,512
2016-05-10T03:57:32.804Z,564
2016-05-10T03:58:32.681Z,612
2016-05-10T03:59:32.902Z,664
2016-05-10T04:00:32.921Z,712
2016-05-10T04:01:32.940Z,752
2016-05-10T04:02:32.988Z,784
2016-05-10T04:03:33.023Z,812
2016-05-10T04:04:33.072Z,836
2016-05-10T04:05:33.121Z,864
2016-05-10T04:06:33.140Z,892
2016-05-10T04:07:33.174Z,928
2016-05-10T04:08:33.052Z,972
2016-05-10T04:09:33.086Z,1020
2016-05-10T04:10:33.276Z,1084
2016-05-10T04:11:33.170Z,1148
2016-05-10T04:12:33.359Z,1220
2016-05-10T04:13:33.378Z,1292
2016-05-10T04:14:33.459Z,1368
2016-05-10T04:15:33.477Z,1436
2016-05-10T04:16:33.355Z,1504
2016-05-10T04:17:33.529Z,1568
2016-05-10T04:18:33.578Z,1636
2016-05-10T04:19:33.628Z,1704
2016-05-10T04:20:33.646Z,1768
2016-05-10T04:21:33.696Z,1800
2016-05-10T04:22:33.730Z,1796
2016-05-10T04:23:33.780Z,1808
2016-05-10T04:24:33.798Z,1848
2016-05-10T04:25:33.676Z,1884
2016-05-10T04:26:33.725Z,1924
2016-05-10T04:27:33.915Z,1968
2016-05-10T04:28:33.949Z,2016
2016-05-10T04:29:34.796Z,2056
2016-05-10T04:30:33.877Z,2088
2016-05-10T04:31:34.067Z,2120
2016-05-10T04:32:34.116Z,2156
2016-05-10T04:33:34.150Z,2192
2016-05-10T04:34:34.185Z,2232
2016-05-10T04:35:34.218Z,2276
2016-05-10T04:36:34.268Z,2308
2016-05-10T04:37:34.287Z,2332
2016-05-10T04:38:34.335Z,2356
2016-05-10T04:39:34.213Z,2392
2016-05-10T04:40:34.262Z,2428
2016-05-10T04:41:34.437Z,2472
2016-05-10T04:42:34.315Z,2520
2016-05-10T04:43:34.349Z,2580
2016-05-10T04:44:35.462Z,2640
2016-05-10T04:45:34.433Z,2716
2016-05-10T04:46:34.638Z,2796
2016-05-10T04:47:34.672Z,2892
2016-05-10T04:48:34.550Z,2996
2016-05-10T04:49:34.600Z,3124
2016-05-10T04:50:34.775Z,3308
2016-05-10T04:51:34.667Z,3784
2016-05-10T04:52:34.701Z,4368
2016-05-10T04:53:34.735Z,4244
2016-05-10T04:54:34.613Z,3772
2016-05-10T04:55:34.975Z,3628
2016-05-10T04:56:34.852Z,3620
2016-05-10T04:57:35.059Z,3732
2016-05-10T04:58:35.093Z,4008
2016-05-10T04:59:34.986Z,4276
2016-05-10T05:00:35.177Z,4228
2016-05-10T05:01:35.038Z,3936
2016-05-10T05:02:35.229Z,3832
2016-05-10T05:03:35.293Z,3784
2016-05-10T05:04:35.155Z,3680
2016-05-10T05:05:35.346Z,3660
2016-05-10T05:06:35.223Z,3636
2016-05-10T05:07:35.429Z,3616
2016-05-10T05:08:35.463Z,3628
2016-05-10T05:09:35.356Z,3680
2016-05-10T05:10:35.547Z,3760
2016-05-10T05:11:35.581Z,3948
2016-05-10T05:12:35.630Z,4056
2016-05-10T05:13:35.509Z,4164
2016-05-10T05:14:35.698Z,4332
2016-05-10T05:15:35.747Z,4400
2016-05-10T05:16:35.626Z,4520
2016-05-10T05:17:35.800Z,4500
2016-05-10T05:18:35.850Z,4520
2016-05-10T05:19:35.883Z,4556
2016-05-10T05:20:35.933Z,4636
2016-05-10T05:21:35.655Z,4568
2016-05-10T05:22:35.860Z,4524
2016-05-10T05:23:35.894Z,4528
2016-05-10T05:24:35.928Z,4488
2016-05-10T05:25:36.103Z,4428
2016-05-10T05:26:36.168Z,4320
2016-05-10T05:27:36.046Z,4292
2016-05-10T05:28:36.454Z,4404
2016-05-10T05:29:36.410Z,4552
2016-05-10T05:30:36.304Z,4612
2016-05-10T05:31:36.337Z,4720
2016-05-10T05:32:36.231Z,4936
2016-05-10T05:33:36.438Z,5084
2016-05-10T05:34:36.315Z,5128
2016-05-10T05:35:36.504Z,5120
2016-05-10T05:36:36.554Z,5120
2016-05-10T05:37:36.588Z,5064
2016-05-10T05:38:36.465Z,4976
2016-05-10T05:39:36.656Z,4928
2016-05-10T05:40:36.534Z,4924
2016-05-10T05:41:36.740Z,4940
2016-05-10T05:42:36.789Z,5008
2016-05-10T05:43:36.807Z,5044
2016-05-10T05:44:36.873Z,5360
2016-05-10T05:45:36.750Z,5932
2016-05-10T05:46:36.940Z,6500
2016-05-10T05:47:36.803Z,5160
2016-05-10T05:48:36.852Z,4928
2016-05-10T05:49:36.887Z,4844
2016-05-10T05:50:36.920Z,4768
2016-05-10T05:51:37.125Z,4820
2016-05-10T05:52:37.175Z,4772
2016-05-10T05:53:37.209Z,4744
2016-05-10T05:54:37.243Z,4760
2016-05-10T05:55:37.277Z,4772
2016-05-10T05:56:37.327Z,4772
2016-05-10T05:57:37.204Z,4764
2016-05-10T05:58:37.238Z,4740
2016-05-10T05:59:37.303Z,4740
2016-05-10T06:00:37.478Z,4752
2016-05-10T06:01:37.496Z,4784
2016-05-10T06:02:37.390Z,4788
2016-05-10T06:03:37.424Z,4788
2016-05-10T06:04:37.474Z,4792
2016-05-10T06:05:37.523Z,4800
2016-05-10T06:06:37.697Z,4788
2016-05-10T06:07:37.747Z,4832
2016-05-10T06:08:37.782Z,4880
2016-05-10T06:09:37.814Z,4948
2016-05-10T06:10:37.848Z,4932
2016-05-10T06:11:37.898Z,4948
2016-05-10T06:12:37.948Z,4996
2016-05-10T06:13:37.982Z,5024
2016-05-10T06:14:37.891Z,5360
2016-05-10T06:15:37.909Z,5072
2016-05-10T06:16:38.098Z,5024
2016-05-10T06:17:38.117Z,5036
2016-05-10T06:18:38.167Z,5120
2016-05-10T06:19:38.201Z,5116
2016-05-10T06:20:38.251Z,5060
2016-05-10T06:21:38.301Z,5148
2016-05-10T06:22:38.319Z,5176
2016-05-10T06:23:38.368Z,5196
2016-05-10T06:24:38.402Z,5212
2016-05-10T06:25:38.280Z,5216
2016-05-10T06:26:38.485Z,5244
2016-05-10T06:27:38.520Z,5268
2016-05-10T06:28:38.413Z,5300
2016-05-10T06:29:38.447Z,5336
2016-05-10T06:30:38.636Z,5412
2016-05-10T06:31:38.687Z,5884
2016-05-10T06:32:38.548Z,5452
2016-05-10T06:33:38.738Z,5616
2016-05-10T06:34:38.632Z,5472
2016-05-10T06:35:38.838Z,5788
2016-05-10T06:36:38.715Z,5516
2016-05-10T06:37:38.906Z,5500
2016-05-10T06:38:38.799Z,5584
2016-05-10T06:39:39.004Z,6512
2016-05-10T06:40:39.023Z,6828
2016-05-10T06:41:39.073Z,7000
2016-05-10T06:42:39.123Z,7260
2016-05-10T06:43:39.001Z,5804
2016-05-10T06:44:39.190Z,6440
2016-05-10T06:45:39.068Z,5816
2016-05-10T06:46:39.274Z,5592
2016-05-10T06:47:39.151Z,5480
2016-05-10T06:48:39.185Z,5468
2016-05-10T06:49:39.376Z,5888
2016-05-10T06:50:39.425Z,5768
2016-05-10T06:51:39.459Z,5640
2016-05-10T06:52:39.493Z,5496
2016-05-10T06:53:39.528Z,5508
2016-05-10T06:54:39.576Z,5688
2016-05-10T06:55:39.610Z,5824
2016-05-10T06:56:39.488Z,5564
2016-05-10T06:57:39.397Z,5660
2016-05-10T06:58:39.556Z,6460
2016-05-10T06:59:39.824Z,6364
2016-05-10T07:00:39.811Z,5716
2016-05-10T07:01:39.844Z,5688
2016-05-10T07:02:39.880Z,5708
2016-05-10T07:03:39.929Z,5792
2016-05-10T07:04:39.963Z,5796
2016-05-10T07:05:40.012Z,5940
2016-05-10T07:06:40.265Z,5856
2016-05-10T07:07:40.065Z,5884
2016-05-10T07:08:39.973Z,6132
2016-05-10T07:09:40.164Z,6044
2016-05-10T07:10:40.198Z,5928
2016-05-10T07:11:40.137Z,5960
2016-05-10T07:12:40.281Z,6004
2016-05-10T07:13:40.315Z,6024
2016-05-10T07:14:40.490Z,6116
2016-05-10T07:15:40.399Z,6164
2016-05-10T07:16:40.448Z,6316
2016-05-10T07:17:40.482Z,6412
2016-05-10T07:18:40.515Z,6400
2016-05-10T07:19:40.551Z,6844
2016-05-10T07:20:40.584Z,7172
2016-05-10T07:21:40.477Z,6472
2016-05-10T07:22:40.667Z,6472
2016-05-10T07:23:40.795Z,6508
2016-05-10T07:24:40.751Z,6728
2016-05-10T07:25:40.645Z,6852
2016-05-10T07:26:40.678Z,6788
2016-05-10T07:27:40.869Z,7232
2016-05-10T07:28:40.902Z,7408
2016-05-10T07:29:40.811Z,7136
2016-05-10T07:30:41.001Z,8128
2016-05-10T07:31:41.035Z,12080
2016-05-10T07:32:40.757Z,9424
2016-05-10T07:33:41.103Z,7232
2016-05-10T07:34:41.153Z,7424
2016-05-10T07:35:41.030Z,7652
2016-05-10T07:36:41.221Z,8652
2016-05-10T07:37:41.270Z,10660
2016-05-10T07:38:41.304Z,8684
2016-05-10T07:39:41.338Z,10712
2016-05-10T07:40:41.387Z,12304
2016-05-10T07:41:41.437Z,9980
2016-05-10T07:42:41.471Z,8596
2016-05-10T07:43:41.505Z,8916
2016-05-10T07:44:41.633Z,9296
2016-05-10T07:45:41.620Z,10836
2016-05-10T07:46:41.654Z,13456
2016-05-10T07:47:41.515Z,12524
2016-05-10T07:48:41.753Z,16240
2016-05-10T07:49:41.787Z,18368
2016-05-10T07:50:41.649Z,31200
2016-05-10T07:51:41.667Z,40448
2016-05-10T07:52:41.873Z,58624
2016-05-10T07:53:41.923Z,59712
2016-05-10T07:54:41.957Z,51104
2016-05-10T07:55:41.990Z,44416
2016-05-10T07:56:42.025Z,44256
2016-05-10T07:57:42.089Z,55360
2016-05-10T07:58:42.123Z,50432
2016-05-10T07:59:43.298Z,50976
2016-05-10T08:00:42.222Z,46400
2016-05-10T08:01:42.256Z,45248
2016-05-10T08:02:42.150Z,40576
2016-05-10T08:03:42.183Z,35360
2016-05-10T08:04:42.389Z,30656
2016-05-10T08:05:42.424Z,29824
2016-05-10T08:06:42.317Z,35264
2016-05-10T08:07:42.507Z,35200
2016-05-10T08:08:42.541Z,34528
2016-05-10T08:09:42.435Z,39904
2016-05-10T08:10:42.655Z,38016
2016-05-10T08:11:42.690Z,48576
2016-05-10T08:12:42.568Z,53408
2016-05-10T08:13:42.757Z,46528
2016-05-10T08:14:42.823Z,47360
2016-05-10T08:15:42.701Z,51232
2016-05-10T08:16:42.890Z,50304
2016-05-10T08:17:42.940Z,47520
2016-05-10T08:18:42.990Z,34464
2016-05-10T08:19:43.024Z,28480
2016-05-10T08:20:43.073Z,29312
2016-05-10T08:21:42.951Z,25632
2016-05-10T08:22:43.001Z,26176
2016-05-10T08:23:43.223Z,33248
2016-05-10T08:24:43.100Z,35680
2016-05-10T08:25:43.133Z,39168
2016-05-10T08:26:43.495Z,40544
2016-05-10T08:27:43.373Z,43488
2016-05-10T08:28:43.111Z,46496
2016-05-10T08:29:45.503Z,52352
2016-05-10T08:30:44.538Z,60832
2016-05-10T08:31:43.697Z,60768
2016-05-10T08:32:43.605Z,63200
2016-05-10T08:33:43.500Z,56736
2016-05-10T08:34:43.549Z,52800
2016-05-10T08:35:43.738Z,46208
2016-05-10T08:36:43.804Z,46560
2016-05-10T08:37:43.682Z,51584
2016-05-10T08:38:43.871Z,53600
2016-05-10T08:39:43.921Z,56128
2016-05-10T08:40:43.815Z,57024
2016-05-10T08:41:44.020Z,55232
2016-05-10T08:42:44.070Z,51168
2016-05-10T08:43:44.119Z,45408
2016-05-10T08:44:44.435Z,46208
2016-05-10T08:45:44.218Z,49760
2016-05-10T08:46:44.252Z,50176
2016-05-10T08:47:44.146Z,49152
2016-05-10T08:48:44.196Z,46976
2016-05-10T08:49:44.385Z,47584
2016-05-10T08:50:44.451Z,38912
2016-05-10T08:51:44.485Z,32032
2016-05-10T08:52:44.223Z,22688
2016-05-10T08:53:44.600Z,20352
2016-05-10T08:54:44.462Z,20064
2016-05-10T08:55:44.668Z,28288
2016-05-10T08:56:44.717Z,53376
2016-05-10T08:57:44.767Z,61504
2016-05-10T08:58:44.816Z,57632
2016-05-10T08:59:45.162Z,46016
2016-05-10T09:00:44.900Z,33952
2016-05-10T09:01:44.964Z,30880
2016-05-10T09:02:44.858Z,29824
2016-05-10T09:03:45.032Z,26720
2016-05-10T09:04:45.097Z,40736
2016-05-10T09:05:45.133Z,46304
2016-05-10T09:06:45.181Z,50240
2016-05-10T09:07:45.075Z,48224
2016-05-10T09:08:45.266Z,42560
2016-05-10T09:09:45.158Z,41760
2016-05-10T09:10:45.364Z,39744
2016-05-10T09:11:52.711Z,41760
2016-05-10T09:12:46.057Z,38464
2016-05-10T09:13:45.497Z,42048
2016-05-10T09:14:45.407Z,44768
2016-05-10T09:15:45.815Z,50784
2016-05-10T09:16:45.662Z,61536
2016-05-10T09:17:45.524Z,63008
2016-05-10T09:18:45.625Z,58688
2016-05-10T09:19:45.702Z,52096
2016-05-10T09:20:45.949Z,44608
2016-05-10T09:21:46.040Z,39872
2016-05-10T09:22:46.115Z,40128
2016-05-10T09:23:45.729Z,45504
2016-05-10T09:24:46.262Z,51584
2016-05-10T09:25:46.327Z,57056
2016-05-10T09:26:46.376Z,57952
2016-05-10T09:27:46.362Z,45408
2016-05-10T09:28:46.496Z,46976
2016-05-10T09:29:47.786Z,35744
2016-05-10T09:30:46.590Z,38080
2016-05-10T09:31:46.506Z,36064
2016-05-10T09:32:46.716Z,33696
2016-05-10T09:33:46.769Z,33056
2016-05-10T09:34:46.804Z,37824
2016-05-10T09:35:46.870Z,42400
2016-05-10T09:36:46.891Z,44544
2016-05-10T09:37:46.974Z,47648
2016-05-10T09:38:46.852Z,52192
2016-05-10T09:39:47.059Z,51264
2016-05-10T09:40:47.109Z,49280
2016-05-10T09:41:47.144Z,46688
2016-05-10T09:42:47.195Z,43264
2016-05-10T09:43:47.244Z,41312
2016-05-10T09:44:46.998Z,40896
2016-05-10T09:45:47.188Z,41408
2016-05-10T09:46:47.410Z,42624
2016-05-10T09:47:47.445Z,44000
2016-05-10T09:48:47.478Z,41248
2016-05-10T09:49:47.371Z,42368
2016-05-10T09:50:47.577Z,44416
2016-05-10T09:51:47.470Z,43200
2016-05-10T09:52:47.661Z,40832
2016-05-10T09:53:47.726Z,38336
2016-05-10T09:54:47.619Z,36736
2016-05-10T09:55:47.825Z,35904
2016-05-10T09:56:47.859Z,37184
2016-05-10T09:57:47.892Z,39168
2016-05-10T09:58:47.959Z,42016
2016-05-10T09:59:48.180Z,45792
2016-05-10T10:00:48.042Z,45728
2016-05-10T10:01:48.107Z,44928
2016-05-10T10:02:48.344Z,42528
2016-05-10T10:03:48.191Z,40064
2016-05-10T10:04:48.240Z,40704
2016-05-10T10:05:48.274Z,40608
2016-05-10T10:06:48.339Z,40800
2016-05-10T10:07:48.373Z,41440
2016-05-10T10:08:48.423Z,40704
2016-05-10T10:09:48.457Z,40928
2016-05-10T10:10:48.350Z,40640
2016-05-10T10:11:48.416Z,39360
2016-05-10T10:12:48.605Z,39104
2016-05-10T10:13:48.671Z,39904
2016-05-10T10:14:48.595Z,42432
2016-05-10T10:15:48.754Z,44256
2016-05-10T10:16:48.788Z,45248
2016-05-10T10:17:48.853Z,45440
2016-05-10T10:18:48.887Z,45856
2016-05-10T10:19:48.780Z,44128
2016-05-10T10:20:49.002Z,41792
2016-05-10T10:21:49.020Z,39808
2016-05-10T10:22:48.929Z,38592
2016-05-10T10:23:48.978Z,37888
2016-05-10T10:24:49.216Z,37920
2016-05-10T10:25:49.234Z,37056
2016-05-10T10:26:49.268Z,31520
2016-05-10T10:27:49.303Z,31968
2016-05-10T10:28:49.383Z,34496
2016-05-10T10:29:49.808Z,35584
2016-05-10T10:30:49.294Z,34240
2016-05-10T10:31:49.500Z,34304
2016-05-10T10:32:49.566Z,34656
2016-05-10T10:33:49.474Z,34272
2016-05-10T10:34:49.492Z,33632
2016-05-10T10:35:49.683Z,30368
2016-05-10T10:36:49.732Z,31008
2016-05-10T10:37:49.797Z,31392
2016-05-10T10:38:49.832Z,30016
2016-05-10T10:39:49.865Z,30016
2016-05-10T10:40:49.931Z,28960
2016-05-10T10:41:49.965Z,29760
2016-05-10T10:42:50.014Z,29664
2016-05-10T10:43:50.064Z,29632
2016-05-10T10:44:50.004Z,29952
2016-05-10T10:45:50.147Z,30400
2016-05-10T10:46:50.197Z,30720
2016-05-10T10:47:50.277Z,30944
2016-05-10T10:48:50.311Z,31808
2016-05-10T10:49:50.190Z,32320
2016-05-10T10:50:50.396Z,31840
2016-05-10T10:51:50.429Z,32064
2016-05-10T10:52:50.479Z,31040
2016-05-10T10:53:50.403Z,29440
2016-05-10T10:54:50.593Z,28704
2016-05-10T10:55:50.627Z,28288
2016-05-10T10:56:50.661Z,27616
2016-05-10T10:57:50.726Z,27648
2016-05-10T10:58:50.776Z,26912
2016-05-10T10:59:51.217Z,25568
2016-05-10T11:00:50.719Z,24992
2016-05-10T11:01:50.753Z,25184
2016-05-10T11:02:50.803Z,25344
2016-05-10T11:03:51.009Z,25728
2016-05-10T11:04:51.058Z,26656
2016-05-10T11:05:50.936Z,27328
2016-05-10T11:06:51.141Z,27584
2016-05-10T11:07:51.175Z,27200
2016-05-10T11:08:51.240Z,27424
2016-05-10T11:09:51.274Z,27232
2016-05-10T11:10:51.324Z,26880
2016-05-10T11:11:51.233Z,26752
2016-05-10T11:12:51.407Z,27072
2016-05-10T11:13:51.472Z,26976
2016-05-10T11:14:51.569Z,26880
2016-05-10T11:15:51.556Z,25312
2016-05-10T11:16:51.605Z,25152
2016-05-10T11:17:51.640Z,24800
2016-05-10T11:18:51.533Z,25440
2016-05-10T11:19:51.582Z,25600
2016-05-10T11:20:51.788Z,25376
2016-05-10T11:21:51.854Z,24832
2016-05-10T11:22:51.716Z,24224
2016-05-10T11:23:51.781Z,23264
2016-05-10T11:24:51.971Z,22560
2016-05-10T11:25:52.021Z,22144
2016-05-10T11:26:51.914Z,22112
2016-05-10T11:27:52.120Z,22080
2016-05-10T11:28:52.170Z,21920
2016-05-10T11:29:52.234Z,22112
2016-05-10T11:30:52.253Z,22080
2016-05-10T11:31:52.145Z,22112
2016-05-10T11:32:52.195Z,22176
2016-05-10T11:33:52.385Z,22176
2016-05-10T11:34:52.435Z,21824
2016-05-10T11:35:52.344Z,22144
2016-05-10T11:36:52.363Z,22208
2016-05-10T11:37:52.568Z,23392
2016-05-10T11:38:52.633Z,24864
2016-05-10T11:39:52.496Z,25696
2016-05-10T11:40:52.561Z,26048
2016-05-10T11:41:52.767Z,26368
2016-05-10T11:42:52.691Z,26368
2016-05-10T11:43:52.537Z,26176
2016-05-10T11:44:52.744Z,25600
2016-05-10T11:45:52.950Z,25120
2016-05-10T11:46:52.827Z,24704
2016-05-10T11:47:53.033Z,24128
2016-05-10T11:48:53.066Z,23936
2016-05-10T11:49:52.976Z,23616
2016-05-10T11:50:53.166Z,23520
2016-05-10T11:51:53.199Z,23552
2016-05-10T11:52:53.281Z,23264
2016-05-10T11:53:53.299Z,23296
2016-05-10T11:54:53.207Z,23424
2016-05-10T11:55:53.398Z,23264
2016-05-10T11:56:53.292Z,23456
2016-05-10T11:57:53.481Z,24032
2016-05-10T11:58:53.375Z,24320
2016-05-10T11:59:54.065Z,24672
2016-05-10T12:00:53.630Z,24640
2016-05-10T12:01:53.664Z,25120
2016-05-10T12:02:53.400Z,25120
2016-05-10T12:03:53.763Z,25632
2016-05-10T12:04:53.844Z,26464
2016-05-10T12:05:53.706Z,26688
2016-05-10T12:06:53.897Z,26944
2016-05-10T12:07:53.789Z,27680
2016-05-10T12:08:53.855Z,27424
2016-05-10T12:09:54.061Z,27712
2016-05-10T12:10:53.783Z,28320
2016-05-10T12:11:54.128Z,28832
2016-05-10T12:12:54.178Z,29152
2016-05-10T12:13:54.228Z,29728
2016-05-10T12:14:54.136Z,30336
2016-05-10T12:15:54.311Z,31296
2016-05-10T12:16:54.377Z,32672
2016-05-10T12:17:54.254Z,33248
2016-05-10T12:18:54.460Z,33632
2016-05-10T12:19:54.510Z,33056
2016-05-10T12:20:54.543Z,33824
2016-05-10T12:21:54.437Z,34496
2016-05-10T12:22:54.627Z,35392
2016-05-10T12:23:54.535Z,36352
2016-05-10T12:24:54.743Z,36768
2016-05-10T12:25:54.776Z,37280
2016-05-10T12:26:54.512Z,36608
2016-05-10T12:27:54.719Z,36576
2016-05-10T12:28:54.924Z,36832
2016-05-10T12:29:55.162Z,36800
2016-05-10T12:30:54.852Z,36992
2016-05-10T12:31:54.916Z,37920
2016-05-10T12:32:54.951Z,39104
2016-05-10T12:33:55.001Z,39424
2016-05-10T12:34:55.222Z,39648
2016-05-10T12:35:55.100Z,39104
2016-05-10T12:36:55.290Z,37856
2016-05-10T12:37:55.355Z,36960
2016-05-10T12:38:55.389Z,36224
2016-05-10T12:39:55.125Z,35392
2016-05-10T12:40:55.503Z,37280
2016-05-10T12:41:55.381Z,33152
2016-05-10T12:42:55.587Z,33984
2016-05-10T12:43:55.636Z,27616
2016-05-10T12:44:55.686Z,24544
2016-05-10T12:45:55.719Z,27680
2016-05-10T12:46:55.817Z,32832
2016-05-10T12:47:55.647Z,34912
2016-05-10T12:48:55.728Z,35808
2016-05-10T12:49:55.902Z,35392
2016-05-10T12:50:55.655Z,34880
2016-05-10T12:51:55.861Z,34080
2016-05-10T12:52:56.052Z,33472
2016-05-10T12:53:55.945Z,33408
2016-05-10T12:54:56.150Z,33152
2016-05-10T12:55:56.201Z,32896
2016-05-10T12:56:56.249Z,32192
2016-05-10T12:57:56.284Z,30912
2016-05-10T12:58:56.348Z,29600
2016-05-10T12:59:56.632Z,28480
2016-05-10T13:00:56.432Z,29664
2016-05-10T13:01:56.482Z,29760
2016-05-10T13:02:56.548Z,29440
2016-05-10T13:03:56.253Z,29504
2016-05-10T13:04:56.459Z,28192
2016-05-10T13:05:56.509Z,27072
2016-05-10T13:06:56.558Z,25664
2016-05-10T13:07:56.764Z,24416
2016-05-10T13:08:56.813Z,23744
2016-05-10T13:09:56.863Z,23008
2016-05-10T13:10:56.741Z,22528
2016-05-10T13:11:56.805Z,22208
2016-05-10T13:12:56.996Z,22080
2016-05-10T13:13:57.045Z,21888
2016-05-10T13:14:57.829Z,21504
2016-05-10T13:15:57.129Z,21152
2016-05-10T13:16:57.178Z,20608
2016-05-10T13:17:57.213Z,19840
2016-05-10T13:18:57.121Z,19040
2016-05-10T13:19:57.327Z,18368
2016-05-10T13:20:57.221Z,18080
2016-05-10T13:21:57.427Z,18144
2016-05-10T13:22:57.319Z,18080
2016-05-10T13:23:58.650Z,17920
2016-05-10T13:24:57.575Z,17696
2016-05-10T13:25:57.609Z,17088
2016-05-10T13:26:57.643Z,16096
2016-05-10T13:27:57.692Z,15616
2016-05-10T13:28:57.726Z,15264
2016-05-10T13:29:57.651Z,14908